Time;durP1;ratioP1;P1;durP2;ratioP2;P2;SDS_P1;SDS_P2;PMS_P1;PMS_P2;Temp;Humidity;BMP_temperature;BMP_pressure;BME280_temperature;BME280_humidity;BME280_pressure;Samples;Min_cycle;Max_cycle;Signal;HPM_P1;HPM_P2
2023/03/10 00:02:31;;;;;;;77.18;44.72;;;;;;;18.16;72.30;99119.16;4923912;29;20466;-60
2023/03/10 00:05:22;;;;;;;75.95;43.45;;;;;;;18.16;72.08;99119.16;4919430;29;20103;-60
2023/03/10 00:08:10;;;;;;;78.20;46.22;;;;;;;18.22;72.42;99120.09;4904124;29;20056;-59
2023/03/10 00:10:53;;;;;;;73.15;44.42;;;;;;;18.17;72.41;99122.66;4923698;29;20056;-59
2023/03/10 00:13:42;;;;;;;77.40;45.28;;;;;;;18.17;72.48;99119.97;4921997;29;20047;-59
2023/03/10 00:16:35;;;;;;;73.55;45.90;;;;;;;18.12;72.53;99123.34;4911960;29;20055;-60
2023/03/10 00:19:30;;;;;;;76.07;46.58;;;;;;;18.11;72.27;99123.56;4915372;29;20167;-59
2023/03/10 00:22:05;;;;;;;82.50;45.65;;;;;;;18.13;72.45;99118.81;4928730;29;20503;-59
2023/03/10 00:24:54;;;;;;;83.77;48.73;;;;;;;18.13;72.62;99127.69;4928753;29;20535;-59
2023/03/10 00:27:37;;;;;;;77.85;46.95;;;;;;;18.09;72.33;99118.47;4928064;29;20146;-59
2023/03/10 00:30:29;;;;;;;87.68;48.35;;;;;;;18.07;72.56;99122.41;4918698;29;20066;-60
2023/03/10 00:33:18;;;;;;;75.95;48.10;;;;;;;18.10;72.46;99119.28;4910827;29;20055;-60
2023/03/10 00:36:09;;;;;;;77.95;46.97;;;;;;;18.12;72.43;99127.91;4928326;29;20106;-60
2023/03/10 00:39:00;;;;;;;84.38;46.95;;;;;;;18.13;72.29;99124.19;4919915;29;20058;-60
2023/03/10 00:41:58;;;;;;;86.57;48.90;;;;;;;18.20;71.81;99127.56;4912905;29;20123;-60
2023/03/10 00:44:34;;;;;;;80.03;48.92;;;;;;;18.19;72.16;99120.59;4928557;29;20436;-61
2023/03/10 00:47:31;;;;;;;87.00;49.05;;;;;;;18.24;72.34;99123.34;4928956;29;20544;-60
2023/03/10 00:50:06;;;;;;;74.43;47.63;;;;;;;18.27;72.43;99122.91;4931050;29;20472;-60
2023/03/10 00:53:03;;;;;;;75.45;48.22;;;;;;;18.22;72.42;99130.84;4907854;29;20059;-61
2023/03/10 00:55:39;;;;;;;86.03;47.67;;;;;;;18.18;72.81;99124.31;4925068;29;20044;-62
2023/03/10 00:58:35;;;;;;;77.95;47.45;;;;;;;18.17;72.71;99128.03;4907703;29;20052;-60
2023/03/10 01:01:20;;;;;;;78.32;49.38;;;;;;;18.18;73.00;99127.81;4882196;29;20044;-61
2023/03/10 01:04:22;;;;;;;79.18;48.72;;;;;;;18.14;72.72;99129.31;4927844;29;20118;-61
2023/03/10 01:06:57;;;;;;;79.88;48.60;;;;;;;18.15;72.88;99132.78;4927275;29;20062;-60
2023/03/10 01:09:53;;;;;;;81.82;49.47;;;;;;;18.15;73.10;99132.78;4919365;29;20051;-61
2023/03/10 01:12:28;;;;;;;80.50;48.22;;;;;;;18.16;72.94;99139.78;4936542;29;20055;-60
2023/03/10 01:15:23;;;;;;;84.65;49.70;;;;;;;18.11;73.22;99143.16;4927394;29;20051;-60
2023/03/10 01:18:12;;;;;;;87.70;51.15;;;;;;;18.10;73.32;99146.09;4926792;29;20488;-60
2023/03/10 01:21:07;;;;;;;87.78;48.78;;;;;;;18.11;73.45;99153.06;4927394;29;20047;-60
2023/03/10 01:23:42;;;;;;;91.90;53.58;;;;;;;18.14;73.60;99150.75;4927078;29;20059;-61
2023/03/10 01:26:32;;;;;;;89.53;52.55;;;;;;;18.12;73.63;99157.38;4909939;29;20054;-61
2023/03/10 01:29:21;;;;;;;94.32;53.15;;;;;;;18.14;73.73;99161.47;4913831;29;20142;-61
2023/03/10 01:32:03;;;;;;;95.28;54.38;;;;;;;18.18;73.61;99156.47;4927461;29;20062;-61
2023/03/10 01:34:53;;;;;;;91.30;54.97;;;;;;;18.20;73.91;99163.22;4927290;29;20420;-61
2023/03/10 01:37:34;;;;;;;98.80;56.88;;;;;;;18.25;73.51;99162.53;4928066;29;20048;-60
2023/03/10 01:40:25;;;;;;;98.78;57.22;;;;;;;18.26;73.72;99161.50;4908889;29;20115;-62
2023/03/10 01:43:23;;;;;;;102.07;56.88;;;;;;;18.31;73.71;99167.00;4916854;29;20048;-62
2023/03/10 01:46:51;;;;;;;116.13;60.35;;;;;;;18.38;74.04;99167.69;4921283;29;20578;-60
2023/03/10 01:49:43;;;;;;;107.50;61.97;;;;;;;18.41;73.69;99170.72;4905893;29;20122;-63
2023/03/10 01:52:38;;;;;;;105.43;63.63;;;;;;;18.48;73.53;99170.63;4927931;29;20052;-61
2023/03/10 01:55:24;;;;;;;114.25;64.93;;;;;;;18.52;73.29;99169.09;4927152;29;20047;-62
2023/03/10 01:58:16;;;;;;;134.93;69.50;;;;;;;18.61;74.11;99167.75;4926045;29;20048;-61
2023/03/10 02:00:57;;;;;;;;;;;;;;;18.71;73.72;99167.16;4927673;29;20357;-62
2023/03/10 02:03:54;;;;;;;119.90;69.20;;;;;;;18.81;72.92;99170.06;4925924;29;20034;-60
2023/03/10 02:06:40;;;;;;;126.18;71.78;;;;;;;18.90;72.83;99173.25;4928216;29;20051;-60
2023/03/10 02:09:31;;;;;;;138.40;75.90;;;;;;;19.02;72.29;99176.72;4914690;29;20115;-61
2023/03/10 02:12:14;;;;;;;146.07;77.75;;;;;;;19.08;72.06;99184.63;4901369;29;20059;-61
2023/03/10 02:15:03;;;;;;;138.00;74.97;;;;;;;19.19;72.07;99181.13;4923668;29;20060;-61
2023/03/10 02:18:00;;;;;;;147.23;78.93;;;;;;;19.30;71.74;99185.66;4926907;29;20158;-62
2023/03/10 02:20:51;;;;;;;166.10;84.05;;;;;;;19.40;71.67;99192.28;4891483;29;20052;-61
2023/03/10 02:24:07;;;;;;;152.07;85.85;;;;;;;19.52;71.30;99187.72;4933458;29;20068;-61
2023/03/10 02:27:12;;;;;;;157.15;85.30;;;;;;;19.82;71.13;99187.53;4910030;29;20052;-61
2023/03/10 02:30:22;;;;;;;151.13;85.88;;;;;;;20.50;69.25;99190.91;4922935;29;20159;-61
2023/03/10 02:33:23;;;;;;;154.15;86.22;;;;;;;21.18;66.80;99197.06;4910825;29;20059;-60
2023/03/10 02:36:26;;;;;;;162.30;86.38;;;;;;;21.76;65.13;99201.84;4921912;29;20061;-61
2023/03/10 02:39:07;;;;;;;155.55;87.40;;;;;;;21.90;63.76;99201.19;4916547;29;20051;-61
2023/03/10 02:41:58;;;;;;;182.20;89.30;;;;;;;22.09;63.69;99203.53;4913951;29;20062;-61
2023/03/10 02:44:48;;;;;;;182.95;88.55;;;;;;;22.78;62.27;99207.16;4912470;29;20087;-61
2023/03/10 02:47:30;;;;;;;182.05;86.78;;;;;;;23.14;60.75;99205.50;4941625;29;20055;-61
2023/03/10 02:50:21;;;;;;;165.48;87.28;;;;;;;23.73;58.63;99209.56;4910648;29;20095;-58
2023/03/10 02:53:28;;;;;;;153.32;86.68;;;;;;;24.12;59.11;99209.94;4925061;29;20062;-60
2023/03/10 02:56:25;;;;;;;161.50;85.80;;;;;;;24.83;55.55;99211.91;4899365;29;20127;-59
2023/03/10 02:59:01;;;;;;;161.50;86.70;;;;;;;25.39;55.14;99218.06;4930677;29;20056;-59
2023/03/10 03:01:56;;;;;;;162.73;86.38;;;;;;;25.40;55.60;99223.19;4945533;28;20555;-59
2023/03/10 03:04:46;;;;;;;149.65;81.70;;;;;;;26.38;52.36;99227.13;4907635;29;20051;-59
2023/03/10 03:07:37;;;;;;;171.63;89.88;;;;;;;26.40;51.65;99228.44;4913038;29;20059;-61
2023/03/10 03:10:19;;;;;;;155.07;84.22;;;;;;;26.43;50.29;99235.19;4929519;29;20054;-60
2023/03/10 03:13:09;;;;;;;153.55;86.18;;;;;;;26.06;51.59;99233.00;4928707;29;20051;-61
2023/03/10 03:15:59;;;;;;;146.90;85.90;;;;;;;25.86;51.80;99237.44;4925438;29;20107;-61
2023/03/10 03:18:42;;;;;;;143.35;74.18;;;;;;;25.91;49.72;99234.69;4919294;29;20087;-60
2023/03/10 03:21:32;;;;;;;128.77;73.38;;;;;;;25.97;50.10;99238.19;4929782;29;20058;-61
2023/03/10 03:24:17;;;;;;;127.55;71.90;;;;;;;26.27;51.05;99243.47;4912686;29;20138;-59
2023/03/10 03:27:09;;;;;;;113.40;61.22;;;;;;;26.21;47.04;99238.34;4926364;29;20056;-60
2023/03/10 03:29:51;;;;;;;98.88;57.47;;;;;;;26.05;46.13;99244.94;4922186;29;20527;-60
2023/03/10 03:32:42;;;;;;;97.80;56.22;;;;;;;25.97;45.26;99249.06;4929673;29;20055;-60
2023/03/10 03:35:35;;;;;;;95.82;50.58;;;;;;;25.87;45.46;99254.53;4915454;29;20148;-60
2023/03/10 03:38:26;;;;;;;85.65;47.53;;;;;;;25.77;47.07;99252.66;4912593;29;20272;-60
2023/03/10 03:41:09;;;;;;;80.53;43.97;;;;;;;25.66;44.37;99245.66;4930033;29;20720;-61
2023/03/10 03:43:58;;;;;;;87.22;43.60;;;;;;;25.67;44.12;99251.91;4911515;29;20052;-61
2023/03/10 03:46:44;;;;;;;98.15;50.03;;;;;;;25.78;45.71;99259.72;4909114;29;20933;-60
2023/03/10 03:49:34;;;;;;;99.50;51.55;;;;;;;26.13;47.12;99257.91;4913246;29;20088;-61
2023/03/10 03:52:18;;;;;;;90.25;50.42;;;;;;;25.84;45.05;99258.63;4912564;29;20055;-60
2023/03/10 03:55:08;;;;;;;101.78;48.35;;;;;;;25.98;45.31;99258.78;4914636;29;20056;-61
2023/03/10 03:57:50;;;;;;;80.03;44.40;;;;;;;26.72;46.86;99258.63;4913654;29;20539;-61
2023/03/10 04:00:40;;;;;;;71.63;38.88;;;;;;;26.81;43.66;99254.22;4929292;29;20055;-61
2023/03/10 04:03:22;;;;;;;64.18;34.10;;;;;;;26.52;41.22;99256.06;4920166;29;20099;-66
2023/03/10 04:06:13;;;;;;;50.85;30.55;;;;;;;26.56;42.35;99251.69;4892167;29;20111;-65
2023/03/10 04:08:54;;;;;;;51.22;27.00;;;;;;;26.70;40.96;99263.53;4927027;29;20051;-65
2023/03/10 04:11:45;;;;;;;47.75;26.73;;;;;;;26.76;39.76;99265.13;4928373;29;20067;-64
2023/03/10 04:14:27;;;;;;;51.53;26.38;;;;;;;27.00;40.10;99261.66;4920542;29;20492;-65
2023/03/10 04:17:17;;;;;;;41.75;24.70;;;;;;;27.17;41.82;99262.06;4893291;29;20052;-65
2023/03/10 04:20:07;;;;;;;42.67;25.50;;;;;;;27.56;40.40;99273.66;4910566;29;20555;-65
2023/03/10 04:23:03;;;;;;;50.65;29.23;;;;;;;27.56;41.58;99267.41;4911702;29;20051;-65
2023/03/10 04:25:41;;;;;;;51.05;27.85;;;;;;;27.79;41.55;99263.84;4920180;29;20056;-66
2023/03/10 04:28:38;;;;;;;63.65;30.80;;;;;;;28.31;40.49;99273.00;4898947;29;20134;-65
2023/03/10 04:31:18;;;;;;;56.17;30.45;;;;;;;28.03;39.57;99271.97;4911763;29;20111;-65
2023/03/10 04:34:15;;;;;;;58.78;27.98;;;;;;;27.83;37.63;99267.63;4916629;29;20056;-66
2023/03/10 04:36:50;;;;;;;46.90;25.75;;;;;;;28.06;38.44;99266.75;4912355;29;20134;-65
2023/03/10 04:39:39;;;;;;;36.58;18.70;;;;;;;28.04;34.93;99276.31;4923016;29;20135;-65
2023/03/10 04:42:30;;;;;;;32.53;14.82;;;;;;;28.37;35.17;99269.88;4911290;29;20140;-64
2023/03/10 04:45:12;;;;;;;28.67;16.07;;;;;;;28.40;34.59;99269.31;4911272;29;20055;-64
2023/03/10 04:48:01;;;;;;;38.25;14.63;;;;;;;28.78;34.80;99272.00;4915602;29;20055;-65
2023/03/10 04:50:43;;;;;;;27.00;13.75;;;;;;;28.99;34.21;99273.28;4902759;29;20097;-65
2023/03/10 04:53:35;;;;;;;22.83;11.90;;;;;;;28.82;33.62;99268.41;4905705;29;20108;-64
2023/03/10 04:56:17;;;;;;;18.50;11.35;;;;;;;28.68;33.33;99270.22;4906526;29;20076;-64
2023/03/10 04:59:07;;;;;;;27.20;12.70;;;;;;;28.97;33.96;99264.59;4895392;29;20047;-65
2023/03/10 05:01:51;;;;;;;32.92;13.55;;;;;;;28.95;33.49;99270.34;4908467;29;20080;-66
2023/03/10 05:04:41;;;;;;;28.73;13.35;;;;;;;29.25;33.85;99268.22;4910040;29;20055;-65
2023/03/10 05:07:31;;;;;;;26.98;13.32;;;;;;;29.72;34.25;99272.50;4898554;29;20080;-65
2023/03/10 05:10:14;;;;;;;;;;;;;;;29.58;33.72;99263.50;4925137;29;20062;-64
2023/03/10 05:13:12;;;;;;;23.33;11.32;;;;;;;29.72;32.16;99264.31;4927556;29;19927;-63
2023/03/10 05:15:48;;;;;;;17.83;10.75;;;;;;;29.32;31.89;99255.81;4926564;29;20052;-61
2023/03/10 05:18:44;;;;;;;25.13;10.88;;;;;;;29.67;31.96;99250.75;4903781;29;20043;-60
2023/03/10 05:21:37;;;;;;;31.80;13.13;;;;;;;30.32;33.44;99254.00;4914797;29;20048;-61
2023/03/10 05:24:28;;;;;;;17.38;9.05;;;;;;;30.25;29.00;99254.44;4896822;29;20056;-61
2023/03/10 05:27:10;;;;;;;24.45;12.45;;;;;;;30.45;33.61;99255.91;4942386;28;20043;-61
2023/03/10 05:29:59;;;;;;;24.15;12.73;;;;;;;30.57;32.79;99247.19;4909876;29;20050;-61
2023/03/10 05:32:57;;;;;;;22.70;11.80;;;;;;;30.48;33.41;99252.59;4915920;29;20047;-61
2023/03/10 05:35:32;;;;;;;19.65;10.82;;;;;;;30.62;32.38;99247.06;4918073;29;20632;-61
2023/03/10 05:38:28;;;;;;;20.38;11.07;;;;;;;30.71;32.04;99240.50;4890858;29;20083;-62
2023/03/10 05:41:11;;;;;;;23.00;11.95;;;;;;;30.74;31.94;99247.31;4893593;29;20166;-62
2023/03/10 05:44:10;;;;;;;41.55;13.95;;;;;;;30.41;30.59;99254.06;4889374;29;20087;-61
2023/03/10 05:46:45;;;;;;;20.65;10.70;;;;;;;30.56;31.28;99242.81;4921637;28;20052;-62
2023/03/10 05:49:43;;;;;;;19.20;11.40;;;;;;;30.69;31.21;99250.97;4910878;29;20134;-63
2023/03/10 05:52:19;;;;;;;25.25;11.43;;;;;;;30.77;32.08;99242.00;4902327;29;20048;-62
2023/03/10 05:55:20;;;;;;;26.25;8.95;;;;;;;31.01;30.75;99247.19;4891798;29;20067;-63
2023/03/10 05:57:56;;;;;;;12.75;8.02;;;;;;;30.93;29.73;99247.91;4910579;29;20055;-62
2023/03/10 06:00:52;;;;;;;;;;;;;;;31.11;30.01;99246.13;4918140;29;20051;-62
2023/03/10 06:03:28;;;;;;;11.57;8.43;;;;;;;31.09;31.24;99243.69;4905944;29;19999;-61
2023/03/10 06:06:24;;;;;;;19.08;7.05;;;;;;;30.96;29.95;99224.59;4912639;29;20471;-61
2023/03/10 06:08:59;;;;;;;14.90;8.38;;;;;;;31.02;30.14;99228.84;4896077;29;20581;-63
2023/03/10 06:11:49;;;;;;;13.65;6.53;;;;;;;30.93;28.98;99225.22;4931757;29;20480;-61
2023/03/10 06:14:32;;;;;;;;;;;;;;;31.08;27.89;99238.50;4936086;28;20130;-61
2023/03/10 06:17:27;;;;;;;14.40;6.63;;;;;;;31.00;29.41;99229.16;4939583;28;19926;-60
2023/03/10 06:20:09;;;;;;;15.02;7.22;;;;;;;31.08;32.00;99216.63;4935917;29;20349;-64
2023/03/10 06:22:58;;;;;;;16.33;7.78;;;;;;;31.16;31.15;99219.41;4898824;29;20056;-62
2023/03/10 06:25:40;;;;;;;15.23;7.22;;;;;;;31.14;30.17;99226.31;4899202;29;20071;-62
2023/03/10 06:28:31;;;;;;;10.52;6.50;;;;;;;31.27;29.83;99219.13;4929279;29;20051;-62
2023/03/10 06:31:19;;;;;;;11.80;5.72;;;;;;;31.05;27.17;99217.25;4910170;29;20048;-61
2023/03/10 06:34:09;;;;;;;10.40;6.63;;;;;;;31.05;30.90;99214.53;4902770;29;20047;-63
2023/03/10 06:37:04;;;;;;;14.57;6.30;;;;;;;31.23;28.37;99208.00;4920813;29;20047;-61
2023/03/10 06:39:39;;;;;;;11.38;6.38;;;;;;;31.29;28.52;99192.25;4919019;29;20054;-63
2023/03/10 06:42:38;;;;;;;14.40;6.95;;;;;;;31.02;29.66;99196.81;4929247;29;20052;-60
2023/03/10 06:45:16;;;;;;;13.00;7.05;;;;;;;31.20;29.89;99197.69;4914617;29;20054;-62
2023/03/10 06:48:12;;;;;;;19.00;6.88;;;;;;;31.16;30.01;99188.47;4926537;29;20057;-61
2023/03/10 06:50:49;;;;;;;19.88;6.80;;;;;;;31.08;27.65;99187.31;4927569;29;20585;-61
2023/03/10 06:53:45;;;;;;;;;;;;;;;31.04;28.38;99194.56;4920322;29;20459;-62
2023/03/10 06:56:21;;;;;;;16.45;7.85;;;;;;;31.04;30.33;99188.28;4929910;29;19934;-61
2023/03/10 06:59:17;;;;;;;18.10;8.27;;;;;;;31.13;30.08;99178.97;4911633;29;20456;-62
2023/03/10 07:01:52;;;;;;;16.10;7.50;;;;;;;31.02;31.71;99182.31;4906425;29;20111;-61
2023/03/10 07:04:48;;;;;;;;;;;;;;;31.22;30.06;99176.28;4889589;29;20138;-60
2023/03/10 07:07:23;;;;;;;18.88;8.45;;;;;;;31.19;29.26;99168.72;4913763;29;20021;-62
2023/03/10 07:10:19;;;;;;;22.35;8.82;;;;;;;31.13;29.53;99169.97;4909976;29;20061;-61
2023/03/10 07:12:57;;;;;;;18.95;8.70;;;;;;;31.03;30.43;99164.75;4920227;29;20051;-61
2023/03/10 07:15:55;;;;;;;18.00;7.65;;;;;;;31.00;30.75;99162.63;4900483;29;20047;-61
2023/03/10 07:18:43;;;;;;;19.90;8.77;;;;;;;30.99;30.13;99152.81;4914487;29;20131;-61
2023/03/10 07:21:38;;;;;;;15.60;10.00;;;;;;;30.96;30.31;99139.75;4933819;28;20114;-62
2023/03/10 07:24:13;;;;;;;21.10;11.23;;;;;;;30.95;33.28;99146.34;4928925;29;20051;-62
2023/03/10 07:27:10;;;;;;;16.08;9.82;;;;;;;30.96;30.79;99137.03;4916916;29;20048;-61
2023/03/10 07:29:46;;;;;;;30.77;11.50;;;;;;;31.03;31.28;99137.41;4928589;29;20142;-61
2023/03/10 07:32:41;;;;;;;25.33;14.07;;;;;;;30.91;32.58;99135.25;4910839;29;20142;-62
2023/03/10 07:35:16;;;;;;;20.23;12.35;;;;;;;30.75;32.89;99132.13;4903566;29;20114;-62
2023/03/10 07:38:13;;;;;;;22.85;14.27;;;;;;;30.80;32.99;99131.19;4929912;29;20051;-61
2023/03/10 07:40:48;;;;;;;25.80;12.65;;;;;;;30.71;32.46;99124.84;4906259;29;20052;-62
2023/03/10 07:43:45;;;;;;;25.83;14.13;;;;;;;30.71;32.70;99120.16;4928293;29;20047;-64
2023/03/10 07:46:21;;;;;;;30.17;14.02;;;;;;;30.63;32.68;99110.00;4935242;28;20047;-61
2023/03/10 07:49:10;;;;;;;22.27;11.73;;;;;;;30.57;32.46;99118.66;4912751;29;20110;-63
2023/03/10 07:51:52;;;;;;;24.48;11.20;;;;;;;30.52;30.72;99110.59;4918905;29;20131;-64
2023/03/10 07:54:49;;;;;;;20.52;12.50;;;;;;;30.63;34.09;99101.78;4914315;29;20055;-62
2023/03/10 07:57:24;;;;;;;24.95;12.00;;;;;;;30.57;33.46;99097.59;4898601;29;20539;-63
2023/03/10 08:00:21;;;;;;;17.65;9.10;;;;;;;30.59;32.39;99091.78;4914547;29;20809;-61
2023/03/10 08:02:56;;;;;;;26.40;10.25;;;;;;;30.53;31.55;99101.28;4913495;29;20051;-62
2023/03/10 08:05:52;;;;;;;;;;;;;;;30.56;31.43;99095.97;4923366;29;20654;-62
2023/03/10 08:08:28;;;;;;;16.70;9.45;;;;;;;30.42;31.70;99078.00;4912861;29;20029;-62
2023/03/10 08:11:25;;;;;;;18.45;10.23;;;;;;;30.39;30.84;99081.38;4909665;29;20155;-62
2023/03/10 08:14:01;;;;;;;18.35;9.05;;;;;;;30.39;31.50;99084.13;4902358;29;20056;-62
2023/03/10 08:16:58;;;;;;;21.67;9.80;;;;;;;30.44;31.06;99075.78;4920726;29;20501;-62
2023/03/10 08:19:47;;;;;;;24.73;10.02;;;;;;;30.33;31.28;99062.38;4887158;29;20134;-64
2023/03/10 08:22:41;;;;;;;20.05;9.10;;;;;;;30.39;31.00;99056.78;4898842;29;20051;-61
2023/03/10 08:25:17;;;;;;;18.05;8.48;;;;;;;30.32;31.44;99055.28;4902177;29;20056;-63
2023/03/10 08:28:08;;;;;;;16.70;7.45;;;;;;;30.18;30.19;99051.81;4921159;29;20638;-63
2023/03/10 08:30:53;;;;;;;14.23;8.15;;;;;;;30.19;30.94;99052.63;4927806;29;20051;-61
2023/03/10 08:33:47;;;;;;;18.83;9.43;;;;;;;30.20;31.47;99041.41;4924326;29;20067;-62
2023/03/10 08:36:31;;;;;;;15.27;8.07;;;;;;;30.08;32.12;99046.63;4904491;28;20043;-61
2023/03/10 08:39:19;;;;;;;13.55;8.23;;;;;;;30.13;31.59;99046.50;4934869;28;20137;-63
2023/03/10 08:42:02;;;;;;;11.45;7.85;;;;;;;29.96;29.51;99032.75;4934741;28;20044;-61
2023/03/10 08:44:53;;;;;;;15.82;8.20;;;;;;;30.15;31.15;99033.34;4933295;28;20078;-62
2023/03/10 08:47:35;;;;;;;15.77;8.15;;;;;;;30.11;31.28;99039.72;4929892;29;20044;-62
2023/03/10 08:50:31;;;;;;;12.63;7.88;;;;;;;29.91;32.49;99030.13;4921599;28;20058;-62
2023/03/10 08:53:06;;;;;;;14.77;8.27;;;;;;;29.78;32.15;99026.31;4907374;29;20059;-62
2023/03/10 08:56:02;;;;;;;;;;;;;;;29.85;31.44;99029.41;4917233;29;20048;-62
2023/03/10 08:58:37;;;;;;;13.43;8.00;;;;;;;29.67;32.97;99026.88;4917028;29;20368;-62
2023/03/10 09:01:30;;;;;;;17.05;7.55;;;;;;;29.66;31.82;99017.06;4924431;29;20051;-62
2023/03/10 09:04:15;;;;;;;14.93;7.68;;;;;;;29.67;31.09;99015.94;4887965;29;20066;-61
2023/03/10 09:07:09;;;;;;;22.45;7.93;;;;;;;29.65;31.27;99013.50;4916107;29;20667;-61
2023/03/10 09:09:45;;;;;;;13.60;8.38;;;;;;;29.81;32.25;99014.78;4917909;29;20063;-61
2023/03/10 09:12:41;;;;;;;15.10;7.60;;;;;;;29.75;30.49;99009.72;4918828;28;20403;-61
2023/03/10 09:15:17;;;;;;;13.02;7.25;;;;;;;29.72;30.92;99010.38;4922286;29;20145;-61
2023/03/10 09:18:14;;;;;;;12.75;6.90;;;;;;;29.63;30.31;98999.38;4904251;29;20119;-61
2023/03/10 09:20:57;;;;;;;14.30;7.43;;;;;;;29.69;31.38;99002.81;4919284;29;20122;-61
2023/03/10 09:23:53;;;;;;;16.00;6.57;;;;;;;29.54;29.68;98997.69;4916401;29;20047;-62
2023/03/10 09:26:36;;;;;;;16.48;7.78;;;;;;;29.53;31.14;98996.06;4895666;29;20142;-61
2023/03/10 09:29:25;;;;;;;18.85;7.35;;;;;;;29.44;29.43;98991.34;4912899;29;20056;-62
2023/03/10 09:32:22;;;;;;;14.50;8.23;;;;;;;29.38;31.56;98987.16;4915791;29;20063;-62
2023/03/10 09:35:13;;;;;;;14.25;6.72;;;;;;;29.39;30.23;98974.28;4907939;29;20047;-62
2023/03/10 09:37:54;;;;;;;13.70;6.72;;;;;;;29.46;30.59;98971.94;4917660;29;20145;-64
2023/03/10 09:40:44;;;;;;;21.88;6.75;;;;;;;29.37;31.58;98977.34;4907101;29;20736;-64
2023/03/10 09:43:27;;;;;;;;;;;;;;;29.32;31.30;98985.66;4920761;29;20051;-62
2023/03/10 09:46:26;;;;;;;16.98;5.97;;;;;;;29.26;30.09;98964.19;4923603;29;20013;-62
2023/03/10 09:49:15;;;;;;;8.95;5.13;;;;;;;29.17;28.14;98961.41;4915966;29;20055;-64
2023/03/10 09:52:07;;;;;;;12.50;6.03;;;;;;;29.28;28.91;98962.78;4919755;28;20043;-67
2023/03/10 09:55:20;;;;;;;11.57;5.82;;;;;;;29.19;30.26;98959.19;4937072;28;20341;-63
2023/03/10 09:58:10;;;;;;;16.15;5.30;;;;;;;29.21;31.11;98950.69;4938900;29;20048;-65
2023/03/10 10:00:52;;;;;;;13.23;6.40;;;;;;;29.18;29.51;98949.38;4928041;29;20721;-64
2023/03/10 10:03:55;;;;;;;8.63;5.63;;;;;;;29.14;32.05;98945.66;4927636;29;20063;-64
2023/03/10 10:06:42;;;;;;;11.02;6.25;;;;;;;29.07;29.36;98942.56;4927553;29;20059;-64
2023/03/10 10:09:48;;;;;;;13.40;5.82;;;;;;;29.03;29.65;98939.59;4921419;29;20075;-65
2023/03/10 10:12:37;;;;;;;13.07;5.30;;;;;;;29.01;30.25;98941.03;4936426;29;20061;-64
2023/03/10 10:15:23;;;;;;;10.35;5.90;;;;;;;28.97;32.82;98937.31;4920361;29;20056;-63
2023/03/10 10:18:46;;;;;;;15.82;6.05;;;;;;;28.99;31.30;98933.16;4933682;29;20048;-65
2023/03/10 10:21:56;;;;;;;15.40;6.75;;;;;;;28.93;32.84;98928.13;4907925;29;20052;-60
2023/03/10 10:25:07;;;;;;;21.35;6.53;;;;;;;28.87;31.85;98930.16;4903590;29;20516;-61
2023/03/10 10:28:02;;;;;;;14.95;6.28;;;;;;;28.62;33.15;98927.97;4894665;29;20139;-63
2023/03/10 10:30:44;;;;;;;12.63;6.50;;;;;;;28.58;33.24;98916.06;4896575;29;20055;-62
2023/03/10 10:33:33;;;;;;;10.65;6.10;;;;;;;28.62;31.44;98921.69;4900853;29;20128;-62
2023/03/10 10:36:17;;;;;;;13.15;6.70;;;;;;;28.72;32.80;98921.53;4891510;29;20040;-64
2023/03/10 10:39:09;;;;;;;17.65;7.55;;;;;;;28.72;32.97;98925.06;4882129;29;20059;-62
2023/03/10 10:41:56;;;;;;;15.90;6.68;;;;;;;28.79;31.52;98930.09;4895640;29;20048;-64
2023/03/10 10:44:49;;;;;;;11.30;6.13;;;;;;;28.79;31.73;98925.44;4905019;29;20063;-62
2023/03/10 10:47:58;;;;;;;14.35;6.80;;;;;;;28.82;30.73;98921.28;4894107;29;20056;-65
2023/03/10 10:50:36;;;;;;;15.45;6.70;;;;;;;28.75;31.45;98910.81;4873407;29;20151;-66
2023/03/10 10:53:25;;;;;;;11.32;6.18;;;;;;;28.76;33.02;98925.25;4892328;29;20131;-64
2023/03/10 10:56:19;;;;;;;15.93;7.07;;;;;;;28.73;31.43;98917.66;4875103;29;20139;-64
2023/03/10 10:59:38;;;;;;;19.25;7.63;;;;;;;28.73;32.27;98917.66;4904933;29;20059;-62
2023/03/10 11:02:33;;;;;;;17.80;6.63;;;;;;;28.64;32.12;98911.28;4907793;29;20056;-63
2023/03/10 11:05:39;;;;;;;14.30;6.73;;;;;;;28.57;32.13;98914.44;4910383;29;20075;-63
2023/03/10 11:08:26;;;;;;;11.27;6.57;;;;;;;28.51;31.94;98907.47;4907060;29;20122;-64
2023/03/10 11:11:56;;;;;;;13.32;7.38;;;;;;;28.50;32.13;98912.09;4895722;29;20562;-63
2023/03/10 11:14:55;;;;;;;10.00;6.55;;;;;;;28.38;32.12;98920.00;4893526;29;20055;-61
2023/03/10 11:18:19;;;;;;;17.38;7.07;;;;;;;28.26;33.67;98914.25;4876119;29;20051;-63
2023/03/10 11:21:21;;;;;;;14.32;8.00;;;;;;;28.22;33.18;98917.88;4908991;29;20499;-63
2023/03/10 11:24:28;;;;;;;11.05;7.78;;;;;;;28.18;31.54;98914.97;4927165;29;20051;-66
2023/03/10 11:27:24;;;;;;;19.08;8.02;;;;;;;28.21;31.17;98908.91;4926675;29;20134;-66
2023/03/10 11:30:43;;;;;;;19.47;7.90;;;;;;;28.11;31.67;98909.91;4932471;29;20134;-64
2023/03/10 11:33:53;;;;;;;11.85;7.93;;;;;;;28.13;31.69;98909.63;4932875;29;20122;-66
2023/03/10 11:37:28;;;;;;;13.32;7.00;;;;;;;28.04;29.42;98908.66;4895117;29;20047;-64
2023/03/10 11:40:29;;;;;;;9.82;5.93;;;;;;;27.99;28.51;98917.75;4823770;29;20054;-65
2023/03/10 11:43:36;;;;;;;15.10;6.78;;;;;;;27.96;28.03;98912.09;4833233;29;20532;-63
2023/03/10 11:46:38;;;;;;;15.98;6.55;;;;;;;27.83;29.88;98899.28;4889984;29;20063;-62
2023/03/10 11:49:27;;;;;;;14.88;7.85;;;;;;;27.72;29.61;98898.63;4927985;29;20055;-63
2023/03/10 11:52:22;;;;;;;20.63;7.93;;;;;;;27.67;30.00;98909.59;4928809;29;20051;-64
2023/03/10 11:55:16;;;;;;;23.15;9.27;;;;;;;27.60;30.94;98904.56;4929263;29;20537;-62
2023/03/10 11:58:09;;;;;;;18.17;11.50;;;;;;;27.65;32.44;98907.19;4917468;29;20139;-63
2023/03/10 12:00:52;;;;;;;20.65;10.50;;;;;;;27.58;33.26;98904.03;4929530;29;20057;-62
2023/03/10 12:04:07;;;;;;;16.75;10.77;;;;;;;27.43;34.13;98901.56;4899358;29;20059;-64
2023/03/10 12:07:03;;;;;;;18.25;11.70;;;;;;;27.38;34.80;98901.66;4927691;29;20496;-63
2023/03/10 12:10:01;;;;;;;21.17;11.63;;;;;;;27.29;35.07;98897.97;4878747;29;20048;-63
2023/03/10 12:12:42;;;;;;;18.33;12.50;;;;;;;27.21;35.03;98896.75;4892350;29;20062;-62
2023/03/10 12:15:42;;;;;;;22.33;12.18;;;;;;;27.19;34.64;98889.97;4891817;29;20056;-64
2023/03/10 12:18:17;;;;;;;23.60;13.53;;;;;;;27.24;36.32;98914.38;4922049;29;20043;-64
2023/03/10 12:21:35;;;;;;;22.48;12.57;;;;;;;27.15;36.45;98894.41;4921841;29;20488;-63
2023/03/10 12:24:43;;;;;;;24.90;13.85;;;;;;;27.13;37.36;98908.28;4908099;29;20048;-65
2023/03/10 12:28:10;;;;;;;28.30;13.35;;;;;;;27.01;38.65;98898.97;4914529;29;20488;-62
2023/03/10 12:30:59;;;;;;;22.90;14.02;;;;;;;26.86;43.16;98901.91;4916917;29;20048;-63
2023/03/10 12:33:43;;;;;;;24.60;14.48;;;;;;;26.66;45.39;98897.53;4913453;29;20047;-64
2023/03/10 12:36:38;;;;;;;21.92;14.32;;;;;;;26.46;41.85;98904.06;4928389;29;20048;-65
2023/03/10 12:39:37;;;;;;;24.35;14.93;;;;;;;26.38;47.78;98901.16;4943291;28;20055;-64
2023/03/10 12:42:38;;;;;;;20.65;13.25;;;;;;;26.23;45.41;98902.16;4936384;28;20110;-65
2023/03/10 12:45:39;;;;;;;18.92;14.25;;;;;;;26.04;43.59;98899.34;4919350;29;20867;-64
2023/03/10 12:48:21;;;;;;;20.70;12.57;;;;;;;26.00;44.69;98898.31;4903520;29;20056;-64
2023/03/10 12:51:22;;;;;;;29.08;15.55;;;;;;;25.85;46.96;98896.53;4920505;29;20580;-65
2023/03/10 12:54:05;;;;;;;;;;;;;;;25.83;42.90;98911.50;4915250;29;20071;-64
2023/03/10 12:57:26;;;;;;;27.70;14.73;;;;;;;25.74;43.45;98908.63;4920344;29;19961;-67
2023/03/10 13:00:11;;;;;;;26.55;13.88;;;;;;;25.79;42.87;98908.56;4926532;28;20058;-64
2023/03/10 13:03:40;;;;;;;20.52;13.25;;;;;;;25.73;43.40;98907.00;4917576;29;20079;-65
2023/03/10 13:06:36;;;;;;;20.45;12.73;;;;;;;25.66;44.17;98911.94;4917612;29;20069;-64
2023/03/10 13:09:46;;;;;;;23.48;14.48;;;;;;;25.69;45.96;98918.69;4936987;29;20060;-67
2023/03/10 13:12:48;;;;;;;23.55;12.88;;;;;;;25.59;46.22;98916.88;4934161;29;20047;-68